Time;durP1;ratioP1;P1;durP2;ratioP2;P2;SDS_P1;SDS_P2;PMS_P1;PMS_P2;Temp;Humidity;BMP_temperature;BMP_pressure;BME280_temperature;BME280_humidity;BME280_pressure;Samples;Min_cycle;Max_cycle;Signal;HPM_P1;HPM_P2
2021/06/28 00:00:30;;;;;;;8.83;6.48;;;;;;;16.87;75.02;96846.41;127719;1093;26233;-91
2021/06/28 00:03:22;;;;;;;7.38;6.55;;;;;;;16.86;74.70;96844.83;127669;1093;24896;-92
2021/06/28 00:05:53;;;;;;;8.98;6.58;;;;;;;16.78;74.63;96850.97;127593;1093;23597;-90
2021/06/28 00:08:25;;;;;;;6.95;6.25;;;;;;;16.71;74.83;96847.95;127569;1092;23597;-92
2021/06/28 00:10:56;;;;;;;6.90;6.20;;;;;;;16.69;75.13;96842.13;127641;1093;25159;-92
2021/06/28 00:13:28;;;;;;;8.28;7.00;;;;;;;16.72;75.17;96846.06;127580;1093;24228;-91
2021/06/28 00:15:59;;;;;;;7.45;6.40;;;;;;;16.75;75.28;96853.46;127600;1093;28702;-94
2021/06/28 00:18:31;;;;;;;6.90;6.20;;;;;;;16.81;75.03;96850.34;127591;1093;29131;-94
2021/06/28 00:21:04;;;;;;;8.00;7.03;;;;;;;16.84;74.64;96854.28;127681;1093;28046;-91
2021/06/28 00:23:35;;;;;;;6.53;5.85;;;;;;;16.82;74.77;96851.13;127687;1091;26411;-92
2021/06/28 00:26:07;;;;;;;7.90;5.93;;;;;;;16.80;74.51;96848.77;127657;1093;25898;-90
2021/06/28 00:28:38;;;;;;;7.03;6.33;;;;;;;16.74;74.58;96851.89;127666;1093;24339;-89
2021/06/28 00:31:09;;;;;;;7.55;6.50;;;;;;;16.74;74.65;96841.97;127599;1092;30445;-91
2021/06/28 00:33:41;;;;;;;7.35;6.33;;;;;;;16.74;74.61;96841.97;127592;1093;27347;-91
2021/06/28 00:36:13;;;;;;;8.48;6.93;;;;;;;16.78;74.52;96850.19;127587;1093;25459;-91
2021/06/28 00:38:44;;;;;;;7.58;6.43;;;;;;;16.80;74.52;96842.63;127597;1093;25732;-91
2021/06/28 00:41:16;;;;;;;8.88;6.93;;;;;;;16.84;74.82;96832.86;127562;1093;25932;-91
2021/06/28 00:43:47;;;;;;;8.05;6.75;;;;;;;16.92;74.77;96840.13;127779;1093;29691;-93
2021/06/28 00:46:19;;;;;;;9.35;7.00;;;;;;;17.00;75.08;96839.34;127579;1092;61063;-95
2021/06/28 00:48:50;;;;;;;8.85;6.43;;;;;;;17.00;74.34;96846.58;127563;1093;26656;-90
2021/06/28 00:51:23;;;;;;;7.50;6.48;;;;;;;17.00;74.52;96847.38;127463;1093;28230;-90
2021/06/28 00:53:55;;;;;;;8.93;6.15;;;;;;;17.02;74.53;96841.70;127502;1093;25389;-92
2021/06/28 00:56:26;;;;;;;9.90;7.10;;;;;;;17.02;74.55;96845.16;127647;1093;25408;-91
2021/06/28 00:58:59;;;;;;;7.95;6.63;;;;;;;17.03;74.58;96841.41;127633;1093;25125;-92
2021/06/28 01:01:31;;;;;;;9.33;7.05;;;;;;;17.01;74.28;96840.13;127599;1093;32227;-93
2021/06/28 01:04:11;;;;;;;10.18;6.95;;;;;;;17.05;74.36;96838.41;127510;1093;51617;-91
2021/06/28 01:06:42;;;;;;;8.05;6.48;;;;;;;17.10;74.18;96841.72;127652;1093;25623;-91
2021/06/28 01:09:13;;;;;;;8.08;7.03;;;;;;;17.15;74.16;96846.91;127653;1093;27044;-91
2021/06/28 01:11:45;;;;;;;9.30;6.67;;;;;;;17.16;74.32;96850.38;127690;1093;40448;-92
2021/06/28 01:14:16;;;;;;;7.45;6.35;;;;;;;17.16;74.49;96851.16;127657;1093;26906;-91
2021/06/28 01:16:48;;;;;;;8.83;7.13;;;;;;;17.11;74.44;96850.55;127699;1093;23993;-91
2021/06/28 01:19:27;;;;;;;8.00;6.78;;;;;;;17.12;74.53;96847.55;127632;1093;32196;-91
2021/06/28 01:22:02;;;;;;;9.40;7.40;;;;;;;17.13;74.58;96846.44;127723;1093;25475;-92
2021/06/28 01:24:34;;;;;;;8.85;7.53;;;;;;;17.16;74.57;96845.80;127682;1092;26156;-93
2021/06/28 01:27:06;;;;;;;8.25;7.00;;;;;;;17.13;74.56;96846.44;127711;1093;26481;-92
2021/06/28 01:29:38;;;;;;;9.43;7.03;;;;;;;17.13;74.67;96843.77;127709;1093;28346;-91
2021/06/28 01:32:10;;;;;;;7.98;6.93;;;;;;;17.11;74.72;96843.30;127714;1093;23712;-91
2021/06/28 01:34:41;;;;;;;9.75;6.85;;;;;;;17.13;74.70;96843.77;127666;1092;28982;-93
2021/06/28 01:37:22;;;;;;;8.53;7.60;;;;;;;17.13;74.76;96841.09;127658;1093;27178;-92
2021/06/28 01:39:53;;;;;;;;;;;;;;;17.06;74.67;96834.63;127777;1093;25514;-91
2021/06/28 01:42:25;;;;;;;8.18;6.93;;;;;;;17.01;74.87;96848.95;127702;1093;24322;-92
2021/06/28 01:44:57;;;;;;;7.53;6.48;;;;;;;17.00;75.18;96847.38;127711;1093;24487;-93
2021/06/28 01:47:29;;;;;;;8.08;6.58;;;;;;;17.02;75.09;96839.80;127662;1093;25769;-91
2021/06/28 01:50:00;;;;;;;9.83;6.80;;;;;;;17.03;75.13;96836.05;127598;1093;26530;-91
2021/06/28 01:52:32;;;;;;;11.55;7.28;;;;;;;17.07;75.08;96837.00;127592;1093;25448;-91
2021/06/28 01:55:05;;;;;;;10.98;6.98;;;;;;;17.10;75.22;96836.36;127676;1093;25969;-94
2021/06/28 01:57:37;;;;;;;7.60;6.53;;;;;;;17.10;75.18;96839.04;127671;1093;26160;-91
2021/06/28 02:00:10;;;;;;;9.00;6.48;;;;;;;17.10;75.02;96836.36;127774;1093;24452;-95
2021/06/28 02:02:42;;;;;;;9.08;6.58;;;;;;;17.12;75.02;96839.51;127651;1093;27560;-93
2021/06/28 02:05:15;;;;;;;7.75;6.93;;;;;;;17.12;74.99;96836.83;127589;1093;35511;-92
2021/06/28 02:07:46;;;;;;;11.80;7.63;;;;;;;17.15;75.21;96841.55;127653;1093;36508;-92
2021/06/28 02:10:18;;;;;;;8.43;7.20;;;;;;;17.17;75.01;96838.56;127629;1093;27680;-92
2021/06/28 02:12:49;;;;;;;8.25;7.38;;;;;;;17.20;75.15;96843.31;127661;1093;24358;-90
2021/06/28 02:15:23;;;;;;;9.35;7.20;;;;;;;17.18;74.97;96837.48;127599;1093;27191;-91
2021/06/28 02:17:54;;;;;;;7.45;6.65;;;;;;;17.13;75.00;96841.09;127576;1093;24621;-92
2021/06/28 02:20:27;;;;;;;8.68;6.88;;;;;;;17.13;75.25;96838.41;127620;1093;26328;-92
2021/06/28 02:23:12;;;;;;;7.25;6.35;;;;;;;17.14;75.19;96848.02;127614;1093;28426;-90
2021/06/28 02:25:44;;;;;;;8.03;7.23;;;;;;;17.11;75.11;96845.97;127609;1093;35791;-91
2021/06/28 02:28:16;;;;;;;8.85;7.73;;;;;;;17.11;75.31;96848.66;127680;1093;24341;-91
2021/06/28 02:30:47;;;;;;;8.55;7.00;;;;;;;17.11;75.34;96845.19;127613;1093;24891;-91
2021/06/28 02:33:19;;;;;;;9.33;7.55;;;;;;;17.11;75.42;96847.86;127619;1093;57118;-90
2021/06/28 02:35:52;;;;;;;7.83;6.98;;;;;;;17.09;75.50;96845.50;127614;1093;38268;-91
2021/06/28 02:38:23;;;;;;;7.90;7.08;;;;;;;17.12;75.55;96839.51;127667;1093;25511;-91
2021/06/28 02:40:55;;;;;;;7.85;7.05;;;;;;;17.14;75.62;96837.30;127641;1092;27100;-91
2021/06/28 02:43:27;;;;;;;10.45;7.83;;;;;;;17.14;75.57;96837.30;127533;1093;43473;-94
2021/06/28 02:46:00;;;;;;;11.43;7.95;;;;;;;17.16;75.77;96839.66;127668;1093;29445;-93
2021/06/28 02:48:31;;;;;;;11.35;8.10;;;;;;;17.15;75.78;96836.20;127683;1093;26289;-92
2021/06/28 02:51:03;;;;;;;9.48;7.55;;;;;;;17.14;75.75;96834.63;127632;1093;26925;-92
2021/06/28 02:53:35;;;;;;;9.23;6.90;;;;;;;17.20;75.88;96843.31;127671;1093;25314;-91
2021/06/28 02:56:16;;;;;;;8.00;6.63;;;;;;;17.23;75.72;96839.20;127762;1093;23251;-90
2021/06/28 02:58:50;;;;;;;7.58;6.75;;;;;;;17.26;75.93;96834.00;127463;1093;64352;-91
2021/06/28 03:01:25;;;;;;;9.80;8.20;;;;;;;17.30;75.85;96834.15;127596;1093;30376;-90
2021/06/28 03:03:57;;;;;;;9.18;8.00;;;;;;;17.33;75.69;96836.22;127615;1093;24875;-94
2021/06/28 03:06:28;;;;;;;9.65;7.80;;;;;;;17.35;75.75;96842.05;127568;1093;31283;-90
2021/06/28 03:08:59;;;;;;;8.80;7.33;;;;;;;17.39;75.57;96838.41;127602;1091;33966;-93
2021/06/28 03:11:31;;;;;;;9.53;7.18;;;;;;;17.43;75.58;96836.67;127592;1093;37040;-92
2021/06/28 03:14:02;;;;;;;8.23;6.60;;;;;;;17.43;75.44;96833.20;127611;1093;29448;-91
2021/06/28 03:16:34;;;;;;;9.93;8.18;;;;;;;17.44;75.49;96837.45;127690;1092;25751;-90
2021/06/28 03:19:05;;;;;;;8.85;7.08;;;;;;;17.41;75.37;96838.88;127895;1093;26815;-90
2021/06/28 03:21:36;;;;;;;8.18;6.70;;;;;;;17.45;75.37;96833.67;127718;1093;24645;-93
2021/06/28 03:24:09;;;;;;;9.58;7.43;;;;;;;17.47;75.39;96834.17;127675;1092;27916;-92
2021/06/28 03:26:40;;;;;;;7.63;6.75;;;;;;;17.47;75.19;96834.95;127625;1093;26430;-93
2021/06/28 03:29:11;;;;;;;8.97;6.97;;;;;;;17.51;75.46;96829.73;127701;1093;25393;-91
2021/06/28 03:31:43;;;;;;;8.08;6.35;;;;;;;17.54;75.54;96829.09;127682;1093;26449;-91
2021/06/28 03:34:14;;;;;;;10.10;7.30;;;;;;;17.59;75.41;96831.61;127652;1092;28978;-92
2021/06/28 03:36:46;;;;;;;8.13;7.30;;;;;;;17.62;75.44;96828.31;127630;1093;29677;-95
2021/06/28 03:39:17;;;;;;;8.55;7.00;;;;;;;17.67;75.31;96836.18;127730;1093;25313;-93
2021/06/28 03:41:49;;;;;;;8.38;7.08;;;;;;;17.72;75.39;96836.03;127657;1092;27065;-90
2021/06/28 03:44:20;;;;;;;7.63;6.70;;;;;;;17.76;75.38;96833.52;127700;1093;27432;-92
2021/06/28 03:46:52;;;;;;;7.85;6.73;;;;;;;17.80;75.20;96831.77;127684;1093;25435;-92
2021/06/28 03:49:23;;;;;;;7.33;6.15;;;;;;;17.82;75.04;96831.45;127675;1092;33289;-92
2021/06/28 03:51:55;;;;;;;8.38;7.10;;;;;;;17.79;74.94;96840.92;127631;1093;27491;-92
2021/06/28 03:54:26;;;;;;;8.75;7.00;;;;;;;17.80;74.95;96839.82;127636;1092;55699;-96
2021/06/28 03:56:58;;;;;;;11.25;7.55;;;;;;;17.78;74.71;96840.14;127732;1093;26654;-92
2021/06/28 03:59:29;;;;;;;8.30;6.55;;;;;;;17.78;74.90;96836.67;127669;1093;28204;-93
2021/06/28 04:02:01;;;;;;;8.90;7.00;;;;;;;17.74;74.76;96833.84;127585;1091;31194;-91
2021/06/28 04:04:32;;;;;;;7.73;6.63;;;;;;;17.73;74.83;96829.56;127633;1093;68314;-92
2021/06/28 04:07:04;;;;;;;8.53;7.48;;;;;;;17.68;74.62;96837.78;127652;1093;55022;-92
2021/06/28 04:09:35;;;;;;;9.23;7.43;;;;;;;17.68;74.69;96837.78;127804;1093;28440;-92
2021/06/28 04:12:08;;;;;;;8.20;6.90;;;;;;;17.74;75.03;96833.84;127688;1092;30727;-96
2021/06/28 04:14:42;;;;;;;7.43;5.98;;;;;;;17.84;74.94;96839.96;127672;1092;32754;-92
2021/06/28 04:17:13;;;;;;;8.08;6.60;;;;;;;17.94;74.83;96834.27;127732;1093;26046;-92
2021/06/28 04:19:44;;;;;;;9.60;6.75;;;;;;;18.04;75.18;96845.45;127689;1092;30115;-93
2021/06/28 04:22:16;;;;;;;8.28;6.63;;;;;;;18.12;74.64;96846.52;127644;1093;28132;-92
2021/06/28 04:24:47;;;;;;;8.05;7.10;;;;;;;18.17;74.66;96845.57;127684;1093;24705;-92
2021/06/28 04:27:19;;;;;;;8.23;6.48;;;;;;;18.18;74.26;96841.78;127635;1093;38189;-93
2021/06/28 04:29:50;;;;;;;8.13;6.63;;;;;;;18.07;74.05;96841.33;127751;1093;23762;-92
2021/06/28 04:32:22;;;;;;;7.68;6.40;;;;;;;18.02;74.24;96841.52;127669;1093;32914;-93
2021/06/28 04:34:54;;;;;;;10.10;7.03;;;;;;;17.97;74.12;96838.98;127636;1092;33386;-92
2021/06/28 04:37:26;;;;;;;9.58;7.33;;;;;;;17.96;74.54;96835.52;127711;1092;27490;-92
2021/06/28 04:39:57;;;;;;;8.48;6.65;;;;;;;18.04;74.62;96836.61;126144;1093;1800669;-92
2021/06/28 04:42:29;;;;;;;7.97;6.60;;;;;;;18.12;74.69;96837.68;127685;1093;25556;-93
2021/06/28 04:45:00;;;;;;;7.63;6.63;;;;;;;18.16;74.31;96843.97;127761;1093;29630;-92
2021/06/28 04:47:32;;;;;;;8.03;6.93;;;;;;;18.16;74.34;96842.10;127738;1093;54347;-92
2021/06/28 04:50:04;;;;;;;8.33;6.98;;;;;;;18.18;74.20;96837.20;127693;1093;47119;-93
2021/06/28 04:52:37;;;;;;;8.40;7.38;;;;;;;18.17;74.34;96838.31;127707;1093;27896;-93
2021/06/28 04:55:11;;;;;;;7.85;6.58;;;;;;;18.25;74.53;96832.10;127811;1093;28313;-91
2021/06/28 04:57:43;;;;;;;7.93;6.78;;;;;;;18.33;74.78;96835.88;127646;1093;27746;-90
2021/06/28 05:00:18;;;;;;;8.60;6.98;;;;;;;18.38;74.29;96835.69;127685;1093;26082;-91
2021/06/28 05:02:50;;;;;;;8.50;7.60;;;;;;;18.47;74.48;96838.34;127462;1093;27227;-88
2021/06/28 05:05:22;;;;;;;7.80;6.45;;;;;;;18.57;74.58;96843.33;127540;1093;25411;-89
2021/06/28 05:07:56;;;;;;;7.93;6.80;;;;;;;18.64;74.50;96832.91;127636;1093;23459;-95
2021/06/28 05:10:27;;;;;;;7.15;6.18;;;;;;;18.76;74.28;96849.13;127588;1093;26779;-87
2021/06/28 05:12:58;;;;;;;8.35;6.85;;;;;;;18.87;74.37;96850.33;127629;1091;24782;-90
2021/06/28 05:15:30;;;;;;;7.55;6.68;;;;;;;19.08;74.36;96852.23;127663;1093;28173;-92
2021/06/28 05:18:01;;;;;;;9.10;7.15;;;;;;;19.23;74.09;96849.75;127596;1093;22816;-92
2021/06/28 05:20:33;;;;;;;7.80;7.00;;;;;;;19.47;73.76;96842.92;127617;1093;26451;-89
2021/06/28 05:23:04;;;;;;;7.08;6.38;;;;;;;19.76;73.85;96844.75;127649;1092;28882;-91
2021/06/28 05:25:36;;;;;;;8.73;6.83;;;;;;;20.28;74.26;96842.30;127696;1093;26916;-89
2021/06/28 05:28:08;;;;;;;8.23;6.60;;;;;;;21.14;73.79;96856.55;127684;1093;24525;-89
2021/06/28 05:30:40;;;;;;;8.50;6.30;;;;;;;22.00;72.14;96850.86;127692;1093;24612;-90
2021/06/28 05:33:11;;;;;;;8.35;6.40;;;;;;;22.66;70.00;96861.00;127678;1093;27385;-88
2021/06/28 05:35:43;;;;;;;9.08;6.70;;;;;;;23.23;68.77;96857.72;127641;1093;27463;-90
2021/06/28 05:38:16;;;;;;;8.05;6.75;;;;;;;23.62;67.59;96863.94;127615;1093;42167;-90
2021/06/28 05:40:47;;;;;;;9.58;6.58;;;;;;;24.14;66.79;96868.02;127677;1093;25061;-93
2021/06/28 05:43:19;;;;;;;8.38;6.05;;;;;;;24.60;64.89;96867.27;127618;1093;73072;-93
2021/06/28 05:45:50;;;;;;;8.65;6.50;;;;;;;24.96;64.17;96868.61;127677;1093;23530;-91
2021/06/28 05:48:21;;;;;;;6.83;6.00;;;;;;;25.37;63.39;96873.10;127656;1093;23756;-91
2021/06/28 05:50:53;;;;;;;7.88;6.60;;;;;;;25.58;61.50;96878.01;127670;1093;23252;-91
2021/06/28 05:53:25;;;;;;;8.10;6.43;;;;;;;25.67;61.02;96875.80;127621;1092;25226;-90
2021/06/28 05:55:58;;;;;;;6.58;5.85;;;;;;;25.94;60.64;96884.68;127598;1093;22832;-90
2021/06/28 05:58:30;;;;;;;6.83;5.58;;;;;;;26.14;59.13;96885.27;127587;1092;40379;-92
2021/06/28 06:01:02;;;;;;;6.20;5.43;;;;;;;26.30;58.76;96883.09;127697;1092;26592;-92
2021/06/28 06:03:35;;;;;;;7.35;5.60;;;;;;;26.59;58.42;96884.16;127579;1093;33329;-90
2021/06/28 06:06:07;;;;;;;6.43;5.70;;;;;;;26.73;57.35;96877.27;127667;1093;24151;-92
2021/06/28 06:08:39;;;;;;;6.53;5.55;;;;;;;26.98;57.37;96875.52;127663;1093;28268;-91
2021/06/28 06:11:10;;;;;;;6.70;5.48;;;;;;;27.38;56.91;96884.73;127685;1092;26620;-93
2021/06/28 06:13:43;;;;;;;7.20;6.50;;;;;;;27.75;56.13;96879.89;127648;1092;25028;-91
2021/06/28 06:16:14;;;;;;;6.88;6.00;;;;;;;28.02;55.08;96879.58;127630;1092;24348;-90
2021/06/28 06:18:46;;;;;;;8.25;6.28;;;;;;;28.19;54.68;96883.51;127559;1092;25655;-89
2021/06/28 06:21:17;;;;;;;6.33;5.68;;;;;;;28.42;54.40;96877.71;127672;1093;28714;-89
2021/06/28 06:23:49;;;;;;;7.90;6.20;;;;;;;28.72;53.67;96880.09;127606;1093;24886;-93
2021/06/28 06:26:22;;;;;;;7.90;6.20;;;;;;;29.03;52.35;96878.53;127608;1093;36468;-90
2021/06/28 06:28:53;;;;;;;7.90;6.28;;;;;;;29.36;52.96;96880.02;127675;1093;25241;-88
2021/06/28 06:31:25;;;;;;;7.10;5.83;;;;;;;29.78;52.13;96887.31;127562;1093;48456;-90
2021/06/28 06:33:56;;;;;;;6.70;5.38;;;;;;;30.28;51.81;96885.13;127549;1093;24995;-90
2021/06/28 06:36:28;;;;;;;5.98;5.38;;;;;;;30.70;49.85;96884.06;127565;1093;34959;-89
2021/06/28 06:38:59;;;;;;;6.55;5.80;;;;;;;30.87;48.83;96887.83;127610;1093;22817;-90
2021/06/28 06:41:32;;;;;;;7.25;6.23;;;;;;;30.73;47.52;96888.73;127521;1093;23162;-88
2021/06/28 06:44:04;;;;;;;7.68;6.20;;;;;;;30.57;48.04;96882.19;127620;1093;23801;-91
2021/06/28 06:46:35;;;;;;;6.75;5.85;;;;;;;30.47;46.89;96891.25;127756;1093;23021;-93
2021/06/28 06:49:08;;;;;;;6.35;5.75;;;;;;;29.86;46.85;96886.11;127775;1093;25435;-92
2021/06/28 06:51:39;;;;;;;7.03;5.73;;;;;;;29.85;47.00;96884.56;127768;1093;26873;-92
2021/06/28 06:54:18;;;;;;;6.33;5.48;;;;;;;29.78;45.87;96893.55;127746;1093;24144;-88
2021/06/28 06:56:50;;;;;;;5.93;5.20;;;;;;;29.40;46.28;96892.48;127654;1093;52909;-92
2021/06/28 06:59:21;;;;;;;6.70;5.03;;;;;;;29.98;47.84;96891.13;127709;1093;25203;-91
2021/06/28 07:01:53;;;;;;;6.93;5.90;;;;;;;30.31;45.90;96897.22;127763;1092;24732;-92
2021/06/28 07:04:28;;;;;;;6.68;5.85;;;;;;;30.36;47.24;96886.62;127917;1093;23649;-88
2021/06/28 07:07:00;;;;;;;6.90;5.73;;;;;;;30.13;45.89;96889.91;127993;1093;23721;-90
2021/06/28 07:09:31;;;;;;;8.38;6.10;;;;;;;29.62;45.93;96887.77;127871;1093;23913;-90
2021/06/28 07:12:03;;;;;;;6.88;5.73;;;;;;;29.59;45.94;96887.78;127875;1093;52448;-87
2021/06/28 07:14:34;;;;;;;9.03;6.38;;;;;;;29.29;45.30;96886.28;127757;1093;25450;-88
2021/06/28 07:17:06;;;;;;;5.60;5.05;;;;;;;29.51;47.75;96893.26;127942;1092;32427;-93
2021/06/28 07:19:38;;;;;;;7.05;6.15;;;;;;;30.19;46.75;96892.98;128217;1093;45644;-93
2021/06/28 07:22:11;;;;;;;6.90;5.35;;;;;;;30.58;47.15;96898.20;128146;1092;69836;-93
2021/06/28 07:24:44;;;;;;;6.88;5.85;;;;;;;31.24;46.11;96906.27;128330;1093;28278;-92
2021/06/28 07:27:16;;;;;;;6.08;5.45;;;;;;;31.59;45.03;96905.13;128071;1093;24506;-92
2021/06/28 07:29:47;;;;;;;6.43;5.45;;;;;;;31.60;42.25;96905.91;128119;1093;34943;-94
2021/06/28 07:32:19;;;;;;;6.28;5.43;;;;;;;31.04;42.92;96905.28;128036;1093;26846;-93
2021/06/28 07:34:50;;;;;;;6.60;5.70;;;;;;;30.90;41.34;96905.41;128143;1093;28383;-94
2021/06/28 07:37:22;;;;;;;7.55;5.60;;;;;;;30.27;41.48;96904.67;128121;1093;29585;-94
2021/06/28 07:39:54;;;;;;;6.80;5.55;;;;;;;29.63;42.04;96905.72;128721;1093;25508;-89
2021/06/28 07:42:25;;;;;;;7.48;5.78;;;;;;;29.23;43.00;96905.00;128459;1093;29908;-95
2021/06/28 07:44:57;;;;;;;7.88;6.20;;;;;;;29.17;43.39;96894.89;128164;1093;32127;-93
2021/06/28 07:47:30;;;;;;;6.25;5.43;;;;;;;29.39;45.07;96907.31;127990;1093;31617;-93
2021/06/28 07:50:02;;;;;;;8.30;6.05;;;;;;;29.99;43.70;96898.16;127855;1093;30311;-93
2021/06/28 07:52:35;;;;;;;5.98;5.38;;;;;;;30.04;42.89;96902.42;127916;1093;28861;-95
2021/06/28 07:55:13;;;;;;;6.95;5.53;;;;;;;30.02;44.08;96896.58;128022;1093;28366;-94
2021/06/28 07:57:44;;;;;;;6.30;5.28;;;;;;;30.73;44.83;96893.42;127882;1093;28673;-94
2021/06/28 08:00:20;;;;;;;7.30;5.50;;;;;;;31.27;42.64;96902.75;127972;1093;29903;-93
2021/06/28 08:02:51;;;;;;;6.50;5.73;;;;;;;30.93;41.95;96905.37;128018;1093;28315;-93
2021/06/28 08:05:23;;;;;;;5.33;4.73;;;;;;;31.09;43.04;96904.05;127888;1093;24845;-93
2021/06/28 08:07:55;;;;;;;6.15;5.50;;;;;;;31.65;42.38;96902.70;127850;1092;28611;-92
2021/06/28 08:10:26;;;;;;;7.08;5.53;;;;;;;32.10;41.57;96905.33;127895;1093;32550;-94
2021/06/28 08:12:58;;;;;;;7.13;4.75;;;;;;;31.84;39.04;96904.09;127879;1093;25826;-93
2021/06/28 08:15:30;;;;;;;6.78;5.73;;;;;;;31.20;38.73;96911.02;127963;1093;28573;-94
2021/06/28 08:18:01;;;;;;;6.00;5.30;;;;;;;30.53;39.46;96900.57;128160;1093;35169;-92
2021/06/28 08:20:37;;;;;;;6.18;5.58;;;;;;;30.25;39.38;96894.11;128088;1093;28121;-93
2021/06/28 08:23:10;;;;;;;8.58;6.43;;;;;;;29.88;39.58;96897.42;128107;1093;30982;-93
2021/06/28 08:25:42;;;;;;;6.48;5.88;;;;;;;29.75;39.40;96893.58;128114;1093;28143;-93
2021/06/28 08:28:14;;;;;;;9.45;5.63;;;;;;;29.47;39.80;96891.72;128251;1093;34366;-95
2021/06/28 08:30:46;;;;;;;5.98;5.15;;;;;;;29.21;40.74;96892.92;128311;1093;32448;-94
2021/06/28 08:33:17;;;;;;;7.40;5.48;;;;;;;29.34;41.25;96894.06;128071;1093;25797;-94
2021/06/28 08:35:49;;;;;;;5.80;5.20;;;;;;;30.01;41.21;96898.53;127925;1093;32125;-92
2021/06/28 08:38:20;;;;;;;5.65;5.13;;;;;;;30.39;41.77;96895.98;127782;1093;28233;-92
2021/06/28 08:40:53;;;;;;;5.68;5.00;;;;;;;31.00;40.88;96904.55;127803;1093;27641;-93
2021/06/28 08:43:25;;;;;;;5.23;4.58;;;;;;;31.59;41.25;96904.36;127910;1093;39807;-93
2021/06/28 08:45:58;;;;;;;7.18;4.85;;;;;;;32.24;40.10;96907.88;127910;1093;27199;-93
2021/06/28 08:48:30;;;;;;;5.85;5.25;;;;;;;32.67;38.95;96902.56;127897;1093;27596;-93
2021/06/28 08:51:03;;;;;;;5.85;4.88;;;;;;;32.71;38.99;96906.02;127853;1093;25278;-93
2021/06/28 08:53:35;;;;;;;6.15;5.45;;;;;;;32.97;38.10;96901.70;127828;1093;27618;-93
2021/06/28 08:56:08;;;;;;;6.23;4.75;;;;;;;32.56;36.68;96914.89;127782;1093;27761;-93
2021/06/28 08:58:40;;;;;;;6.05;4.95;;;;;;;31.45;36.48;96907.25;127905;1092;25901;-92
2021/06/28 09:01:12;;;;;;;8.98;5.08;;;;;;;30.59;36.99;96905.23;127902;1093;26842;-91
2021/06/28 09:03:43;;;;;;;5.53;4.53;;;;;;;29.95;38.14;96900.11;127742;1093;25232;-94
2021/06/28 09:06:23;;;;;;;6.03;4.73;;;;;;;29.72;38.15;96902.57;127913;1092;23607;-94
2021/06/28 09:09:00;;;;;;;5.65;4.58;;;;;;;29.46;38.84;96904.60;127894;1092;26305;-94
2021/06/28 09:11:35;;;;;;;5.48;4.65;;;;;;;29.71;39.93;96906.48;127862;1093;25366;-94
2021/06/28 09:14:10;;;;;;;5.65;5.13;;;;;;;29.80;39.53;96904.08;127897;1093;60403;-94
2021/06/28 09:16:45;;;;;;;6.40;4.88;;;;;;;29.67;38.92;96903.74;127988;1093;25870;-90
2021/06/28 09:19:19;;;;;;;6.28;5.18;;;;;;;29.25;38.76;96896.41;128092;1093;34051;-94
2021/06/28 09:21:53;;;;;;;6.15;5.05;;;;;;;28.92;39.95;96901.15;128011;1093;32834;-94
2021/06/28 09:24:31;;;;;;;6.43;5.20;;;;;;;29.08;40.42;96891.77;128017;1093;26597;-94
2021/06/28 09:27:24;;;;;;;5.68;5.08;;;;;;;29.16;40.77;96896.06;127957;1093;34025;-95
2021/06/28 09:29:57;;;;;;;5.80;5.05;;;;;;;29.30;39.87;96890.57;128035;1092;24814;-93
2021/06/28 09:32:30;;;;;;;5.75;4.85;;;;;;;29.30;39.31;96906.95;127907;1093;29456;-94
2021/06/28 09:35:04;;;;;;;6.30;4.88;;;;;;;29.02;38.95;96907.00;127950;1093;27848;-93
2021/06/28 09:37:42;;;;;;;5.58;5.00;;;;;;;28.62;39.07;96914.38;127850;1093;39819;-93
2021/06/28 09:40:24;;;;;;;5.50;4.93;;;;;;;28.76;39.69;96917.11;127843;1093;29171;-92
2021/06/28 09:42:55;;;;;;;5.90;5.28;;;;;;;28.96;40.31;96917.52;127983;1093;25629;-91
2021/06/28 09:45:29;;;;;;;6.73;4.88;;;;;;;28.96;40.05;96921.02;127927;1093;25481;-93
2021/06/28 09:48:01;;;;;;;7.43;4.40;;;;;;;29.05;40.05;96915.18;127853;1093;25677;-93
2021/06/28 09:50:33;;;;;;;5.40;4.73;;;;;;;29.21;40.03;96909.30;127865;1092;27700;-93
2021/06/28 09:53:06;;;;;;;5.05;4.55;;;;;;;29.38;39.49;96903.02;127937;1093;26771;-94
2021/06/28 09:55:42;;;;;;;5.58;4.90;;;;;;;29.38;38.51;96900.29;128189;1093;26488;-92
2021/06/28 09:58:21;;;;;;;5.08;4.60;;;;;;;29.16;38.62;96896.06;128158;1093;27432;-92
2021/06/28 10:00:56;;;;;;;5.55;5.00;;;;;;;29.21;39.59;96892.92;128025;1092;30742;-92
2021/06/28 10:03:36;;;;;;;6.88;4.63;;;;;;;29.49;40.30;96894.83;127950;1093;30733;-92
2021/06/28 10:06:11;;;;;;;;;;;;;;;29.59;39.89;96882.32;128008;1093;28511;-93
2021/06/28 10:08:45;;;;;;;6.05;4.93;;;;;;;29.71;39.37;96885.40;127970;1093;26055;-91
2021/06/28 10:11:20;;;;;;;5.45;4.68;;;;;;;29.74;40.08;96883.82;127836;1093;29887;-93
2021/06/28 10:13:55;;;;;;;6.30;5.10;;;;;;;29.87;39.49;96879.47;127817;1093;58138;-94
2021/06/28 10:16:29;;;;;;;5.30;4.80;;;;;;;29.88;40.16;96878.29;127945;1093;23030;-93
2021/06/28 10:19:04;;;;;;;6.93;4.83;;;;;;;29.91;39.93;96882.95;127995;1093;26400;-94
2021/06/28 10:21:37;;;;;;;5.53;4.60;;;;;;;29.67;38.27;96884.61;128206;1093;38702;-95
2021/06/28 10:24:10;;;;;;;5.40;4.90;;;;;;;29.33;38.85;96881.58;128413;1091;30888;-93
2021/06/28 10:26:42;;;;;;;5.25;4.63;;;;;;;29.21;38.51;96873.80;128193;1093;27669;-91
2021/06/28 10:29:15;;;;;;;5.50;4.93;;;;;;;29.11;38.55;96880.06;128131;1093;29070;-92
2021/06/28 10:31:47;;;;;;;5.68;5.18;;;;;;;29.24;39.67;96878.47;128110;1093;28646;-94
2021/06/28 10:34:19;;;;;;;5.50;4.73;;;;;;;29.46;39.55;96873.75;128181;1093;82883;-95
2021/06/28 10:36:54;;;;;;;5.35;4.78;;;;;;;29.45;38.92;96870.23;128417;1093;31940;-96
2021/06/28 10:39:32;;;;;;;5.70;5.10;;;;;;;29.33;38.27;96867.92;128200;1093;28863;-94
2021/06/28 10:42:04;;;;;;;7.00;4.90;;;;;;;28.88;39.05;96862.17;127976;1093;28065;-93
2021/06/28 10:44:51;;;;;;;7.30;5.20;;;;;;;28.81;38.83;96867.59;128000;1092;30394;-92
2021/06/28 10:47:23;;;;;;;6.03;5.40;;;;;;;28.46;39.25;96853.97;127971;1092;30477;-92
2021/06/28 10:49:56;;;;;;;6.60;5.90;;;;;;;28.50;40.07;96868.38;128142;1093;29212;-94
2021/06/28 10:52:52;;;;;;;6.75;5.38;;;;;;;28.67;40.25;96871.11;128157;1093;29466;-94
2021/06/28 10:55:58;;;;;;;5.93;5.30;;;;;;;28.96;40.31;96868.38;128168;1093;28723;-94
2021/06/28 10:58:34;;;;;;;7.38;5.08;;;;;;;29.12;40.03;96863.28;128249;1092;28898;-94
2021/06/28 11:01:15;;;;;;;6.83;5.33;;;;;;;29.07;40.23;96860.96;128381;1093;29376;-95
2021/06/28 11:04:07;;;;;;;6.38;4.93;;;;;;;28.99;40.15;96867.59;128299;1093;37259;-95
2021/06/28 11:06:45;;;;;;;6.05;5.38;;;;;;;28.95;39.44;96858.64;128148;1093;28929;-93
2021/06/28 11:09:17;;;;;;;7.00;5.55;;;;;;;28.64;39.13;96858.25;128000;1093;32807;-93
2021/06/28 11:11:59;;;;;;;6.17;5.33;;;;;;;28.56;40.02;96855.91;128001;1093;27689;-93
2021/06/28 11:14:45;;;;;;;6.08;5.03;;;;;;;28.73;40.42;96849.68;128058;1093;25291;-94
2021/06/28 11:17:20;;;;;;;7.03;5.55;;;;;;;28.81;39.79;96845.76;128319;1093;26223;-94
2021/06/28 11:20:05;;;;;;;6.18;5.40;;;;;;;28.59;39.66;96857.88;128523;1093;33257;-95
2021/06/28 11:22:44;;;;;;;7.33;5.37;;;;;;;28.53;40.65;96848.50;128300;1093;32239;-94
2021/06/28 11:25:19;;;;;;;6.05;5.23;;;;;;;28.58;40.32;96848.91;128212;1093;35864;-94
2021/06/28 11:28:05;;;;;;;5.68;4.80;;;;;;;28.52;40.22;96855.13;128398;1092;27537;-94
2021/06/28 11:30:45;;;;;;;5.55;5.05;;;;;;;28.46;40.32;96851.25;128253;1093;26470;-94
2021/06/28 11:33:17;;;;;;;6.38;5.20;;;;;;;28.42;39.76;96850.44;128226;1093;36801;-94
2021/06/28 11:35:51;;;;;;;5.83;5.23;;;;;;;27.86;39.11;96857.32;128292;1093;32444;-95
2021/06/28 11:38:27;;;;;;;6.00;5.18;;;;;;;27.47;40.58;96852.50;128473;1093;32255;-95
2021/06/28 11:41:01;;;;;;;6.30;4.95;;;;;;;27.60;40.46;96840.11;128351;1093;31275;-95
2021/06/28 11:43:41;;;;;;;5.47;4.83;;;;;;;27.50;39.96;96840.84;128241;1093;75945;-94
2021/06/28 11:46:14;;;;;;;6.28;5.10;;;;;;;27.12;40.99;96844.92;128377;1093;39914;-93
2021/06/28 11:48:49;;;;;;;5.33;4.80;;;;;;;27.29;40.99;96840.73;128242;1093;29308;-94
2021/06/28 11:51:23;;;;;;;6.03;5.05;;;;;;;27.50;41.35;96832.67;128208;1092;28258;-93